createdAt,value
2023-04-11T00:18:21.696Z,19.6
2023-04-11T00:48:21.697Z,19.6
2023-04-11T01:18:21.692Z,19.5
2023-04-11T01:48:21.683Z,19.5
2023-04-11T02:18:21.693Z,19.5
2023-04-11T02:48:21.400Z,19.5
2023-04-11T03:18:21.715Z,19.5
2023-04-11T03:48:21.703Z,19.6
2023-04-11T04:18:21.690Z,19.7
2023-04-11T04:48:21.681Z,19.8
2023-04-11T05:18:21.681Z,20.0
2023-04-11T05:48:21.691Z,20.1
2023-04-11T06:18:21.690Z,20.1
2023-04-11T06:48:21.696Z,20.2
2023-04-11T07:18:21.682Z,20.2
2023-04-11T07:48:21.664Z,20.3
2023-04-11T08:18:21.669Z,20.3
2023-04-11T08:48:21.707Z,20.3
2023-04-11T09:18:21.420Z,20.3
2023-04-11T09:48:21.689Z,20.3
2023-04-11T10:18:21.645Z,20.3
2023-04-11T10:48:21.568Z,20.3
2023-04-11T11:18:21.530Z,20.3
2023-04-11T11:48:21.878Z,20.2
2023-04-11T12:18:21.799Z,20.2
2023-04-11T12:48:21.875Z,20.2
2023-04-11T13:18:21.798Z,20.3
2023-04-11T13:48:21.853Z,20.3
2023-04-11T14:18:21.807Z,20.3
2023-04-11T14:48:21.825Z,20.3
2023-04-11T15:18:21.811Z,20.3
2023-04-11T15:48:21.813Z,20.3
2023-04-11T16:18:21.800Z,20.3
2023-04-11T16:48:21.544Z,20.3
2023-04-11T17:18:21.840Z,20.3
2023-04-11T17:48:21.850Z,20.4
2023-04-11T18:18:21.752Z,20.6
2023-04-11T18:48:21.813Z,20.5
2023-04-11T19:18:21.711Z,20.5
2023-04-11T19:48:21.644Z,20.4
2023-04-11T20:18:21.748Z,20.3
2023-04-11T20:48:21.740Z,20.1
2023-04-11T21:18:21.722Z,20.1
2023-04-11T21:48:21.692Z,20.0
2023-04-11T22:18:21.737Z,19.9
2023-04-11T22:48:21.661Z,19.8
2023-04-11T23:18:21.754Z,19.8
2023-04-11T23:48:21.605Z,19.7
